FL37 weather

Treasure Coast Airpark
Fort Pierce, Florida, United States

Public forecast

Using degrees Fahrenheit for public forecast. Weather courtesy of forecast.io.

Closest aviation weather report (METAR) to Treasure Coast Airpark

Closest report is Witham Field, 14.8 nm (27.5 km) ESE. Retrieved 2019/10/14 19:50 UTC (21 minutes ago):

KSUA 141950Z 11010KT 7SM SCT045 28/20 A3003

Closest aviation forecast (TAF) to Treasure Coast Airpark

Closest forecast is Witham Field, 14.8 nm (27.5 km) ESE. Retrieved 2019/10/14 18:22 UTC (2 hours ago):

TAF KSUA 141720Z 1418/1518 11010KT P6SM SCT030 FM150200 VRB02KT P6SM SCT200 FM151400 11008KT P6SM FEW040 BKN120